Time;durP1;ratioP1;P1;durP2;ratioP2;P2;SDS_P1;SDS_P2;PMS_P1;PMS_P2;Temp;Humidity;BMP_temperature;BMP_pressure;BME280_temperature;BME280_humidity;BME280_pressure;Samples;Min_cycle;Max_cycle;Signal;HPM_P1;HPM_P2
2022/11/13 00:00:42;;;;;;;;;;;5.90;99.10;;;;;;5021497;28;1014;-73
2022/11/13 00:03:10;;;;;;;;;;;5.80;99.10;;;;;;5017906;28;1296;-72
2022/11/13 00:05:39;;;;;;;;;;;5.80;99.10;;;;;;5025616;28;2494;-73
2022/11/13 00:08:07;;;;;;;;;;;5.80;99.10;;;;;;5019559;28;1143;-74
2022/11/13 00:10:34;;;;;;;;;;;5.80;99.20;;;;;;5027565;28;1025;-72
2022/11/13 00:13:02;;;;;;;;;;;5.80;99.30;;;;;;5019038;28;1474;-72
2022/11/13 00:15:29;;;;;;;;;;;5.80;99.30;;;;;;5021746;28;1969;-72
2022/11/13 00:18:00;;;;;;;;;;;5.80;99.30;;;;;;5022367;28;1064;-72
2022/11/13 00:20:27;;;;;;;;;;;5.80;99.60;;;;;;5032475;28;1077;-73
2022/11/13 00:22:56;;;;;;;;;;;5.90;99.20;;;;;;5018764;28;1387;-72
2022/11/13 00:25:24;;;;;;;;;;;5.90;99.30;;;;;;5026281;28;1892;-73
2022/11/13 00:27:52;;;;;;;;;;;5.90;99.30;;;;;;5018831;28;1086;-74
2022/11/13 00:30:20;;;;;;;;;;;5.90;99.30;;;;;;5026774;28;1437;-74
2022/11/13 00:32:48;;;;;;;;;;;5.90;99.10;;;;;;5027630;28;1361;-74
2022/11/13 00:35:15;;;;;;;;;;;5.90;99.20;;;;;;5024681;28;1918;-68
2022/11/13 00:37:43;;;;;;;;;;;5.80;99.10;;;;;;5020476;28;1698;-65
2022/11/13 00:40:12;;;;;;;;;;;5.70;99.60;;;;;;5024535;28;1618;-74
2022/11/13 00:42:40;;;;;;;;;;;5.60;99.90;;;;;;5030680;28;1284;-69
2022/11/13 00:45:08;;;;;;;;;;;5.80;99.90;;;;;;5026789;28;1850;-71
2022/11/13 00:47:35;;;;;;;;;;;5.80;99.90;;;;;;5025740;28;1273;-71
2022/11/13 00:50:03;;;;;;;;;;;5.90;99.60;;;;;;5024216;28;1139;-71
2022/11/13 00:52:31;;;;;;;;;;;5.90;99.70;;;;;;5018992;28;1520;-71
2022/11/13 00:54:58;;;;;;;;;;;5.90;99.60;;;;;;5023940;28;1910;-70
2022/11/13 00:57:27;;;;;;;;;;;6.00;99.60;;;;;;5027582;28;1114;-70
2022/11/13 00:59:55;;;;;;;;;;;6.00;99.60;;;;;;5023903;28;1029;-70
2022/11/13 01:02:23;;;;;;;;;;;6.00;99.50;;;;;;5027609;28;1391;-71
2022/11/13 01:04:50;;;;;;;;;;;6.00;99.50;;;;;;5022942;28;1643;-71
2022/11/13 01:07:18;;;;;;;;;;;6.00;99.50;;;;;;5029732;28;1006;-71
2022/11/13 01:09:49;;;;;;;;;;;5.90;99.60;;;;;;5025609;28;1097;-71
2022/11/13 01:12:17;;;;;;;;;;;6.00;99.50;;;;;;5017294;28;1345;-71
2022/11/13 01:14:46;;;;;;;;;;;6.00;99.60;;;;;;5025396;28;1987;-71
2022/11/13 01:17:13;;;;;;;;;;;6.00;99.50;;;;;;5024008;28;1493;-70
2022/11/13 01:19:41;;;;;;;;;;;6.00;99.40;;;;;;5026471;28;1186;-70
2022/11/13 01:22:08;;;;;;;;;;;6.00;99.80;;;;;;5022401;28;1359;-70
2022/11/13 01:24:36;;;;;;;;;;;6.00;99.90;;;;;;5023480;28;1116;-71
2022/11/13 01:27:04;;;;;;;;;;;6.00;99.80;;;;;;5024111;28;1335;-70
2022/11/13 01:29:31;;;;;;;;;;;6.00;99.90;;;;;;5025260;28;997;-71
2022/11/13 01:32:00;;;;;;;;;;;6.00;99.90;;;;;;5023129;28;1377;-71
2022/11/13 01:34:28;;;;;;;;;;;6.00;99.70;;;;;;5018341;28;1983;-70
2022/11/13 01:36:55;;;;;;;;;;;6.00;99.70;;;;;;5023797;28;1084;-70
2022/11/13 01:39:23;;;;;;;;;;;6.00;99.50;;;;;;5017204;28;1036;-71
2022/11/13 01:41:51;;;;;;;;;;;6.00;99.50;;;;;;5021504;28;1331;-71
2022/11/13 01:44:19;;;;;;;;;;;6.00;99.40;;;;;;5023863;28;1093;-71
2022/11/13 01:46:48;;;;;;;;;;;6.00;99.60;;;;;;5017689;28;1093;-71
2022/11/13 01:49:24;;;;;;;;;;;6.00;99.60;;;;;;5026986;28;1026;-71
2022/11/13 01:51:54;;;;;;;;;;;6.00;99.50;;;;;;5022600;28;1488;-71
2022/11/13 01:54:23;;;;;;;;;;;6.00;99.30;;;;;;5018629;28;1997;-70
2022/11/13 01:56:51;;;;;;;;;;;6.00;99.40;;;;;;5027861;28;1040;-71
2022/11/13 01:59:22;;;;;;;;;;;6.10;99.60;;;;;;5027870;28;1152;-70
2022/11/13 02:01:50;;;;;;;;;;;6.00;99.50;;;;;;5033661;28;1401;-70
2022/11/13 02:04:19;;;;;;;;;;;6.10;99.50;;;;;;5025267;28;1509;-70
2022/11/13 02:06:48;;;;;;;;;;;6.10;99.60;;;;;;5019265;28;1193;-70
2022/11/13 02:09:16;;;;;;;;;;;6.10;99.40;;;;;;5019078;28;981;-70
2022/11/13 02:11:43;;;;;;;;;;;6.00;99.40;;;;;;5023919;28;1369;-70
2022/11/13 02:20:17;;;;;;;;;;;6.10;99.40;;;;;;5032568;28;1350;-84
2022/11/13 02:22:47;;;;;;;;;;;6.00;99.10;;;;;;5029413;28;1040;-84
2022/11/13 02:25:16;;;;;;;;;;;6.00;99.20;;;;;;5030859;28;1021;-84
2022/11/13 02:27:44;;;;;;;;;;;6.00;99.40;;;;;;5032757;28;1394;-84
2022/11/13 02:30:14;;;;;;;;;;;6.30;99.60;;;;;;5033687;28;1395;-85
2022/11/13 02:32:44;;;;;;;;;;;6.10;99.50;;;;;;5023650;28;1004;-85
2022/11/13 02:35:12;;;;;;;;;;;6.10;99.10;;;;;;5034409;28;1875;-85
2022/11/13 02:37:40;;;;;;;;;;;6.10;99.30;;;;;;5024952;28;1570;-86
2022/11/13 02:40:08;;;;;;;;;;;6.20;99.00;;;;;;5031801;28;1272;-86
2022/11/13 02:42:37;;;;;;;;;;;6.10;99.30;;;;;;5032719;28;974;-85
2022/11/13 02:45:05;;;;;;;;;;;5.90;99.40;;;;;;5036892;28;1445;-86
2022/11/13 02:47:33;;;;;;;;;;;6.10;99.30;;;;;;5033725;28;1536;-85
2022/11/13 02:50:01;;;;;;;;;;;6.00;99.30;;;;;;5023997;28;1348;-87
2022/11/13 02:52:30;;;;;;;;;;;6.10;99.20;;;;;;5045123;28;1045;-84
2022/11/13 02:54:57;;;;;;;;;;;6.10;99.40;;;;;;5033991;28;1887;-85
2022/11/13 02:57:25;;;;;;;;;;;6.10;99.10;;;;;;5022119;28;1422;-86
2022/11/13 02:59:54;;;;;;;;;;;6.40;99.20;;;;;;5021642;28;1381;-87
2022/11/13 03:02:22;;;;;;;;;;;6.10;99.40;;;;;;5020439;28;1048;-87
2022/11/13 03:04:50;;;;;;;;;;;6.10;99.40;;;;;;5019404;28;1402;-86
2022/11/13 03:07:37;;;;;;;;;;;6.10;99.20;;;;;;5019899;28;1580;-85
2022/11/13 03:10:05;;;;;;;;;;;6.00;99.30;;;;;;5024732;28;1346;-84
2022/11/13 03:12:33;;;;;;;;;;;6.00;99.50;;;;;;5020005;28;1188;-84
2022/11/13 03:15:02;;;;;;;;;;;6.00;99.10;;;;;;5018836;28;1907;-84
2022/11/13 03:17:30;;;;;;;;;;;6.00;99.60;;;;;;5019468;28;1009;-84
2022/11/13 03:19:58;;;;;;;;;;;6.00;99.40;;;;;;5029562;28;1282;-85
2022/11/13 03:22:26;;;;;;;;;;;6.00;99.30;;;;;;5029400;28;1029;-85
2022/11/13 03:24:53;;;;;;;;;;;6.10;99.50;;;;;;5026320;28;1009;-86
2022/11/13 03:27:21;;;;;;;;;;;5.90;99.60;;;;;;5027973;28;996;-86
2022/11/13 03:29:50;;;;;;;;;;;5.90;99.50;;;;;;5030294;28;1528;-86
2022/11/13 03:32:20;;;;;;;;;;;5.90;99.50;;;;;;5018263;28;1105;-85
2022/11/13 03:34:47;;;;;;;;;;;5.80;99.90;;;;;;5027335;28;1349;-86
2022/11/13 03:37:15;;;;;;;;;;;5.90;99.60;;;;;;5030327;28;1965;-86
2022/11/13 03:39:42;;;;;;;;;;;5.80;99.50;;;;;;5026349;28;1670;-85
2022/11/13 03:42:10;;;;;;;;;;;5.90;99.60;;;;;;5025456;28;1413;-86
2022/11/13 03:44:38;;;;;;;;;;;5.90;99.60;;;;;;5035081;28;1575;-86
2022/11/13 03:47:05;;;;;;;;;;;5.90;99.80;;;;;;5030275;28;994;-86
2022/11/13 03:49:35;;;;;;;;;;;5.90;99.70;;;;;;5031723;28;1597;-87
2022/11/13 03:52:02;;;;;;;;;;;5.90;99.90;;;;;;5032233;28;1356;-86
2022/11/13 03:54:30;;;;;;;;;;;6.00;99.70;;;;;;5029954;28;1060;-84
2022/11/13 03:56:58;;;;;;;;;;;6.00;99.50;;;;;;5039706;28;1950;-85
2022/11/13 03:59:25;;;;;;;;;;;5.90;99.60;;;;;;5023852;28;1739;-86
2022/11/13 04:01:53;;;;;;;;;;;5.90;99.60;;;;;;5024654;28;1566;-87
2022/11/13 04:04:21;;;;;;;;;;;5.90;99.80;;;;;;5024372;28;1490;-88
2022/11/13 04:06:50;;;;;;;;;;;5.80;99.70;;;;;;5034495;28;1071;-86
2022/11/13 04:09:17;;;;;;;;;;;5.90;99.90;;;;;;5031833;28;1351;-86
2022/11/13 04:11:45;;;;;;;;;;;6.10;99.70;;;;;;5032913;28;1686;-87
2022/11/13 04:14:13;;;;;;;;;;;5.90;99.50;;;;;;5025048;28;1374;-85
2022/11/13 04:16:40;;;;;;;;;;;5.90;99.50;;;;;;5024949;28;1974;-84
2022/11/13 04:19:08;;;;;;;;;;;5.90;99.60;;;;;;5024818;28;1351;-85
2022/11/13 04:21:36;;;;;;;;;;;5.80;99.70;;;;;;5030237;28;1630;-85
2022/11/13 04:24:05;;;;;;;;;;;5.80;99.70;;;;;;5034443;28;1679;-86
2022/11/13 04:26:33;;;;;;;;;;;5.80;99.90;;;;;;5041561;28;1084;-85
2022/11/13 04:29:01;;;;;;;;;;;5.80;99.40;;;;;;5039489;28;1543;-87
2022/11/13 04:31:29;;;;;;;;;;;5.80;99.00;;;;;;5030833;28;1068;-83
2022/11/13 04:33:56;;;;;;;;;;;6.10;99.50;;;;;;5039783;28;993;-83
2022/11/13 04:36:24;;;;;;;;;;;5.70;99.60;;;;;;5038711;28;1887;-85
2022/11/13 04:38:52;;;;;;;;;;;5.70;99.50;;;;;;5042711;28;1574;-87
2022/11/13 04:44:22;;;;;;;;;;;5.70;99.70;;;;;;4974305;28;1218;-87
2022/11/13 04:46:49;;;;;;;;;;;5.70;99.50;;;;;;5020385;28;993;-86
2022/11/13 04:49:17;;;;;;;;;;;5.70;99.50;;;;;;5032162;28;1868;-87
2022/11/13 04:51:45;;;;;;;;;;;5.60;99.40;;;;;;5039747;28;1025;-84
2022/11/13 04:54:13;;;;;;;;;;;5.70;99.50;;;;;;5044130;28;1064;-88
2022/11/13 04:56:42;;;;;;;;;;;5.80;99.90;;;;;;5030001;28;2001;-88
2022/11/13 04:59:12;;;;;;;;;;;5.40;99.90;;;;;;5051602;28;1631;-89
2022/11/13 05:01:40;;;;;;;;;;;5.30;99.90;;;;;;5049978;28;1538;-91
2022/11/13 05:04:10;;;;;;;;;;;5.30;99.90;;;;;;5045886;28;1722;-94
2022/11/13 05:06:38;;;;;;;;;;;5.60;99.90;;;;;;5047556;28;1569;-89
2022/11/13 05:09:06;;;;;;;;;;;5.30;99.90;;;;;;5044449;28;1411;-89
2022/11/13 05:11:34;;;;;;;;;;;5.30;99.90;;;;;;5043679;28;1605;-89
2022/11/13 05:14:04;;;;;;;;;;;5.20;99.90;;;;;;5044098;28;1519;-90
2022/11/13 05:16:31;;;;;;;;;;;5.20;99.90;;;;;;5044766;28;1898;-90
2022/11/13 05:18:59;;;;;;;;;;;5.30;99.90;;;;;;5044980;28;1576;-89
2022/11/13 05:21:27;;;;;;;;;;;5.30;99.90;;;;;;5042678;28;1710;-85
2022/11/13 05:23:55;;;;;;;;;;;5.30;99.90;;;;;;5044881;28;1562;-88
2022/11/13 05:26:23;;;;;;;;;;;5.20;99.90;;;;;;5037126;28;1033;-90
2022/11/13 05:28:50;;;;;;;;;;;5.50;99.90;;;;;;5023714;28;1288;-90
2022/11/13 05:31:19;;;;;;;;;;;5.20;99.90;;;;;;5022509;28;1354;-89
2022/11/13 05:33:48;;;;;;;;;;;5.20;99.90;;;;;;5023788;28;1521;-87
2022/11/13 05:36:16;;;;;;;;;;;5.20;99.90;;;;;;5023744;28;1984;-89
2022/11/13 05:38:44;;;;;;;;;;;5.30;99.90;;;;;;5024460;28;1253;-88
2022/11/13 05:41:13;;;;;;;;;;;5.20;99.90;;;;;;5023204;28;1588;-88
2022/11/13 05:43:41;;;;;;;;;;;5.20;99.90;;;;;;5037348;28;954;-87
2022/11/13 05:46:23;;;;;;;;;;;5.20;99.90;;;;;;5023969;28;1594;-88
2022/11/13 05:48:52;;;;;;;;;;;5.30;99.90;;;;;;5024735;28;1316;-87
2022/11/13 05:51:21;;;;;;;;;;;5.20;99.90;;;;;;5033378;28;1672;-85
2022/11/13 05:53:49;;;;;;;;;;;5.20;99.90;;;;;;5032413;28;2371;-84
2022/11/13 05:56:18;;;;;;;;;;;5.20;99.90;;;;;;5035041;28;2556;-84
2022/11/13 05:58:46;;;;;;;;;;;5.30;99.90;;;;;;5042087;28;1338;-84
2022/11/13 06:01:16;;;;;;;;;;;5.20;99.90;;;;;;5044791;28;1384;-83
2022/11/13 06:03:45;;;;;;;;;;;5.20;99.90;;;;;;5041107;28;2630;-84
2022/11/13 06:06:14;;;;;;;;;;;5.20;99.90;;;;;;5037487;28;1236;-83
2022/11/13 06:08:41;;;;;;;;;;;5.10;99.90;;;;;;5026095;28;1144;-85
2022/11/13 06:11:10;;;;;;;;;;;5.10;99.90;;;;;;5036151;28;1558;-82
2022/11/13 06:13:41;;;;;;;;;;;5.20;99.90;;;;;;5034518;28;1406;-83
2022/11/13 06:16:10;;;;;;;;;;;5.40;99.90;;;;;;5034616;28;1401;-81
2022/11/13 06:18:38;;;;;;;;;;;5.60;99.90;;;;;;5039743;28;1981;-82
2022/11/13 06:21:09;;;;;;;;;;;5.30;99.90;;;;;;5036466;28;1381;-81
2022/11/13 06:23:37;;;;;;;;;;;5.30;99.90;;;;;;5034847;28;1164;-81
2022/11/13 06:26:06;;;;;;;;;;;5.30;99.90;;;;;;5033473;28;1165;-82
2022/11/13 06:28:34;;;;;;;;;;;5.30;99.90;;;;;;5036633;28;2517;-83
2022/11/13 06:31:02;;;;;;;;;;;5.30;99.90;;;;;;5034810;28;1217;-83
2022/11/13 06:33:30;;;;;;;;;;;5.30;99.90;;;;;;5033253;28;1697;-81
2022/11/13 06:36:00;;;;;;;;;;;5.30;99.90;;;;;;5032245;28;1064;-81
2022/11/13 06:38:31;;;;;;;;;;;5.50;99.90;;;;;;5033778;28;1887;-82
2022/11/13 06:40:59;;;;;;;;;;;5.30;99.90;;;;;;5031719;28;1462;-82
2022/11/13 06:43:27;;;;;;;;;;;4.90;99.90;;;;;;5041370;28;1503;-81
2022/11/13 06:45:58;;;;;;;;;;;5.40;99.90;;;;;;5037656;28;1476;-82
2022/11/13 06:48:28;;;;;;;;;;;5.50;99.90;;;;;;5041984;28;1353;-81
2022/11/13 06:51:00;;;;;;;;;;;5.30;99.90;;;;;;5036511;28;1575;-82
2022/11/13 06:53:27;;;;;;;;;;;5.30;99.90;;;;;;5027138;28;1081;-84
2022/11/13 06:55:57;;;;;;;;;;;5.40;99.90;;;;;;5028833;28;2492;-82
2022/11/13 06:58:24;;;;;;;;;;;5.30;99.90;;;;;;5033386;28;2612;-83
2022/11/13 07:00:53;;;;;;;;;;;5.40;99.90;;;;;;5034359;28;2556;-81
2022/11/13 07:03:21;;;;;;;;;;;5.40;99.90;;;;;;5024966;28;2497;-83
2022/11/13 07:05:49;;;;;;;;;;;5.40;99.90;;;;;;5031877;28;1144;-83
2022/11/13 07:08:17;;;;;;;;;;;5.50;99.90;;;;;;5048770;28;1126;-84
2022/11/13 07:10:52;;;;;;;;;;;5.50;99.90;;;;;;5027822;28;1294;-83
2022/11/13 07:13:22;;;;;;;;;;;5.50;99.90;;;;;;5026859;28;966;-82
2022/11/13 07:15:49;;;;;;;;;;;5.40;99.90;;;;;;5019147;28;1145;-83
2022/11/13 07:18:17;;;;;;;;;;;5.50;99.90;;;;;;5018721;28;1903;-83
2022/11/13 07:20:50;;;;;;;;;;;5.70;99.90;;;;;;5025248;28;1414;-86
2022/11/13 07:23:18;;;;;;;;;;;5.60;99.90;;;;;;5028198;28;1576;-82
2022/11/13 07:25:45;;;;;;;;;;;5.60;99.90;;;;;;5022748;28;1029;-85
2022/11/13 07:28:13;;;;;;;;;;;5.70;99.90;;;;;;5027137;28;2570;-83
2022/11/13 07:30:42;;;;;;;;;;;5.60;99.90;;;;;;5028790;28;1373;-84
2022/11/13 07:33:10;;;;;;;;;;;5.70;99.90;;;;;;5022354;28;1172;-84
2022/11/13 07:35:38;;;;;;;;;;;5.70;99.90;;;;;;5025456;28;1033;-82
2022/11/13 07:38:05;;;;;;;;;;;5.80;99.90;;;;;;5022962;28;1910;-84
2022/11/13 07:40:33;;;;;;;;;;;6.00;99.90;;;;;;5034001;28;1428;-82
2022/11/13 07:43:01;;;;;;;;;;;5.80;99.90;;;;;;5036757;28;1391;-84
2022/11/13 07:45:29;;;;;;;;;;;6.00;99.90;;;;;;5032539;28;1706;-82
2022/11/13 07:47:59;;;;;;;;;;;6.00;99.90;;;;;;5025793;28;1030;-82
2022/11/13 07:50:27;;;;;;;;;;;6.20;99.90;;;;;;5031007;28;1356;-85
2022/11/13 07:52:56;;;;;;;;;;;6.30;99.90;;;;;;5022781;28;1279;-85
2022/11/13 07:55:23;;;;;;;;;;;6.40;99.90;;;;;;5035864;28;1195;-84
2022/11/13 07:57:51;;;;;;;;;;;6.50;99.90;;;;;;5032191;28;1875;-84
2022/11/13 08:00:19;;;;;;;;;;;6.60;99.90;;;;;;5037165;28;1509;-85
2022/11/13 08:02:47;;;;;;;;;;;6.70;99.90;;;;;;5032869;28;2509;-85
2022/11/13 08:05:16;;;;;;;;;;;6.70;99.90;;;;;;5025733;28;1386;-82
2022/11/13 08:07:46;;;;;;;;;;;6.80;99.90;;;;;;5028338;28;974;-83
2022/11/13 08:10:19;;;;;;;;;;;6.80;99.90;;;;;;5039658;28;1360;-84
2022/11/13 08:12:47;;;;;;;;;;;6.90;99.90;;;;;;5035044;28;1116;-84
2022/11/13 08:15:17;;;;;;;;;;;6.90;99.90;;;;;;5037507;28;1080;-83
2022/11/13 08:17:53;;;;;;;;;;;6.60;99.90;;;;;;5028619;28;2553;-84
2022/11/13 08:20:22;;;;;;;;;;;7.00;99.90;;;;;;5019562;28;1516;-83
2022/11/13 08:22:50;;;;;;;;;;;7.10;99.90;;;;;;5019515;28;2538;-85
2022/11/13 08:25:18;;;;;;;;;;;7.40;99.90;;;;;;5032100;28;1574;-82
2022/11/13 08:27:48;;;;;;;;;;;7.20;99.90;;;;;;5033509;28;2543;-84
2022/11/13 08:30:16;;;;;;;;;;;7.30;99.90;;;;;;5023813;28;1478;-86
2022/11/13 08:32:48;;;;;;;;;;;7.80;99.90;;;;;;5023530;28;1024;-83
2022/11/13 08:35:16;;;;;;;;;;;7.40;99.90;;;;;;5034726;28;1532;-83
2022/11/13 08:37:48;;;;;;;;;;;7.60;99.90;;;;;;5035726;28;1906;-83
2022/11/13 08:40:16;;;;;;;;;;;7.60;99.90;;;;;;5038157;28;1402;-84
2022/11/13 08:42:48;;;;;;;;;;;7.70;99.90;;;;;;5024845;28;2507;-84
2022/11/13 08:45:16;;;;;;;;;;;7.80;99.90;;;;;;5033768;28;954;-85
2022/11/13 08:47:44;;;;;;;;;;;8.00;99.90;;;;;;5027489;28;906;-85
2022/11/13 08:50:12;;;;;;;;;;;7.90;99.90;;;;;;5029665;28;1670;-86
2022/11/13 08:52:45;;;;;;;;;;;7.80;99.90;;;;;;5039262;28;977;-85
2022/11/13 08:55:15;;;;;;;;;;;7.80;99.90;;;;;;5034490;28;1507;-84
2022/11/13 08:57:43;;;;;;;;;;;7.90;99.90;;;;;;5040851;28;1104;-84
2022/11/13 09:00:44;;;;;;;;;;;7.90;99.90;;;;;;5041207;28;2047;-86
2022/11/13 09:03:12;;;;;;;;;;;8.00;99.90;;;;;;4981972;28;1292;-82
2022/11/13 09:05:42;;;;;;;;;;;8.00;99.90;;;;;;4977806;28;1399;-87
2022/11/13 09:08:10;;;;;;;;;;;7.60;99.90;;;;;;5004361;28;1073;-85
2022/11/13 09:10:39;;;;;;;;;;;7.90;99.90;;;;;;5029972;28;1331;-84
2022/11/13 09:13:10;;;;;;;;;;;8.00;99.90;;;;;;5031821;28;1664;-85
2022/11/13 09:18:35;;;;;;;;;;;8.20;99.90;;;;;;5015065;28;1899;-86
2022/11/13 09:21:03;;;;;;;;;;;8.40;99.90;;;;;;5037560;28;1252;-83
2022/11/13 09:23:31;;;;;;;;;;;8.60;99.90;;;;;;5038732;28;1484;-83
2022/11/13 09:26:14;;;;;;;;;;;8.40;99.90;;;;;;5030992;28;1481;-84
2022/11/13 09:28:49;;;;;;;;;;;8.50;99.90;;;;;;5031892;28;1417;-84
2022/11/13 09:31:17;;;;;;;;;;;8.50;99.90;;;;;;5041840;28;1589;-84
2022/11/13 09:33:45;;;;;;;;;;;8.50;99.90;;;;;;5036463;28;2343;-84
2022/11/13 09:36:22;;;;;;;;;;;8.40;99.90;;;;;;5021206;28;1369;-83
2022/11/13 09:39:19;;;;;;;;;;;8.50;99.90;;;;;;5031720;28;1902;-85
2022/11/13 09:41:56;;;;;;;;;;;8.10;99.90;;;;;;5032340;28;2029;-83
2022/11/13 09:44:30;;;;;;;;;;;8.50;99.90;;;;;;5030966;28;1557;-82
2022/11/13 09:50:41;;;;;;;;;;;8.40;99.90;;;;;;5033652;28;1355;-86
2022/11/13 09:53:09;;;;;;;;;;;8.20;99.90;;;;;;5036331;28;1539;-83
2022/11/13 09:55:45;;;;;;;;;;;8.60;99.90;;;;;;5033614;28;1689;-84
2022/11/13 09:58:23;;;;;;;;;;;8.80;99.90;;;;;;5030412;28;1763;-82
2022/11/13 10:00:57;;;;;;;;;;;8.80;99.90;;;;;;5035926;28;1723;-82
2022/11/13 10:03:32;;;;;;;;;;;8.80;99.90;;;;;;5023898;28;970;-85
2022/11/13 10:06:23;;;;;;;;;;;8.80;99.90;;;;;;5030562;28;1242;-85
2022/11/13 10:08:52;;;;;;;;;;;8.80;99.80;;;;;;5035563;28;1532;-85
2022/11/13 10:11:23;;;;;;;;;;;8.80;99.90;;;;;;5025315;28;1363;-87
2022/11/13 10:13:54;;;;;;;;;;;8.90;99.90;;;;;;5029342;28;1798;-85
2022/11/13 10:16:28;;;;;;;;;;;9.00;99.30;;;;;;5035744;28;1799;-87
2022/11/13 10:19:00;;;;;;;;;;;8.80;99.20;;;;;;5043635;28;1964;-86
2022/11/13 10:21:31;;;;;;;;;;;8.70;99.10;;;;;;5055399;28;1342;-87
2022/11/13 10:24:11;;;;;;;;;;;8.90;99.30;;;;;;5031748;28;1509;-86
2022/11/13 10:26:43;;;;;;;;;;;8.50;99.40;;;;;;5033629;28;1585;-87
2022/11/13 10:29:14;;;;;;;;;;;8.60;99.50;;;;;;5030859;28;1291;-89
2022/11/13 10:31:47;;;;;;;;;;;8.50;99.00;;;;;;5025297;28;1736;-86
2022/11/13 10:34:16;;;;;;;;;;;8.60;99.70;;;;;;5039398;28;997;-85
2022/11/13 10:36:50;;;;;;;;;;;8.50;99.60;;;;;;5037755;28;1025;-86
2022/11/13 10:39:17;;;;;;;;;;;8.70;99.90;;;;;;5026861;28;1982;-87
2022/11/13 10:41:46;;;;;;;;;;;8.50;99.50;;;;;;5022956;28;1661;-87
2022/11/13 10:44:29;;;;;;;;;;;8.60;99.70;;;;;;5022342;28;989;-87
2022/11/13 10:47:13;;;;;;;;;;;8.60;99.70;;;;;;5028562;28;1458;-88
2022/11/13 10:49:41;;;;;;;;;;;8.30;99.80;;;;;;5029075;28;1707;-87
2022/11/13 10:52:16;;;;;;;;;;;8.70;99.70;;;;;;5035700;28;1715;-87
2022/11/13 10:54:44;;;;;;;;;;;8.50;99.90;;;;;;5029822;28;1345;-87
2022/11/13 10:57:21;;;;;;;;;;;8.60;99.90;;;;;;5034415;28;1021;-88
2022/11/13 10:59:50;;;;;;;;;;;8.70;99.90;;;;;;5038283;28;1997;-86
2022/11/13 11:02:21;;;;;;;;;;;8.70;99.80;;;;;;5039103;28;1539;-86
2022/11/13 11:04:49;;;;;;;;;;;9.00;99.90;;;;;;5040159;28;1768;-87
2022/11/13 11:07:18;;;;;;;;;;;9.00;99.20;;;;;;5034453;28;1706;-86
2022/11/13 11:09:48;;;;;;;;;;;8.90;99.40;;;;;;5030257;28;1370;-86
2022/11/13 11:12:18;;;;;;;;;;;8.90;99.90;;;;;;5029267;28;1100;-86
2022/11/13 11:14:59;;;;;;;;;;;9.20;99.20;;;;;;5035932;28;1060;-86
2022/11/13 11:17:31;;;;;;;;;;;8.90;99.80;;;;;;5037019;28;1700;-86
2022/11/13 11:20:01;;;;;;;;;;;8.90;99.70;;;;;;5032666;28;1973;-86
2022/11/13 11:22:31;;;;;;;;;;;8.80;99.80;;;;;;5033365;28;1504;-85
2022/11/13 11:25:01;;;;;;;;;;;8.80;99.90;;;;;;5046727;28;985;-86
2022/11/13 11:27:34;;;;;;;;;;;8.90;99.90;;;;;;5033670;28;1523;-85
2022/11/13 11:30:04;;;;;;;;;;;8.90;99.90;;;;;;5039964;28;1536;-85
2022/11/13 11:32:38;;;;;;;;;;;9.10;99.90;;;;;;5034029;28;1340;-85
2022/11/13 11:35:14;;;;;;;;;;;9.00;99.90;;;;;;5034671;28;1548;-87
2022/11/13 11:37:49;;;;;;;;;;;9.50;99.60;;;;;;5029706;28;1682;-87
2022/11/13 11:40:21;;;;;;;;;;;9.00;99.10;;;;;;5021919;28;1898;-87
2022/11/13 11:42:54;;;;;;;;;;;8.90;99.00;;;;;;5021818;28;1366;-87
2022/11/13 11:45:24;;;;;;;;;;;8.90;99.20;;;;;;5019253;28;1732;-87
2022/11/13 11:47:54;;;;;;;;;;;8.90;99.40;;;;;;5022743;28;1385;-86
2022/11/13 11:50:27;;;;;;;;;;;9.00;99.30;;;;;;5030418;28;1504;-86
2022/11/13 11:52:59;;;;;;;;;;;9.10;98.90;;;;;;5028538;28;1575;-86
2022/11/13 11:55:31;;;;;;;;;;;9.50;98.60;;;;;;5025935;28;1445;-87
2022/11/13 11:58:05;;;;;;;;;;;9.20;99.00;;;;;;5035400;28;1597;-87
2022/11/13 12:00:35;;;;;;;;;;;9.20;98.60;;;;;;5035464;28;1898;-86
2022/11/13 12:03:20;;;;;;;;;;;8.90;98.60;;;;;;5038102;28;1743;-87
2022/11/13 12:05:58;;;;;;;;;;;9.00;99.00;;;;;;5020977;28;905;-87
2022/11/13 12:08:30;;;;;;;;;;;9.20;98.60;;;;;;5029709;28;1726;-86
2022/11/13 12:11:02;;;;;;;;;;;9.30;98.20;;;;;;5032958;28;1430;-89
2022/11/13 12:13:31;;;;;;;;;;;9.40;97.30;;;;;;5032100;28;1084;-87
2022/11/13 12:16:02;;;;;;;;;;;9.40;96.90;;;;;;5033808;28;1323;-89
2022/11/13 12:18:35;;;;;;;;;;;9.30;97.50;;;;;;5033733;28;1037;-87
2022/11/13 12:21:09;;;;;;;;;;;9.40;97.40;;;;;;5024317;28;1887;-86
2022/11/13 12:23:45;;;;;;;;;;;9.50;97.10;;;;;;5028995;28;1547;-88
2022/11/13 12:26:18;;;;;;;;;;;9.60;96.90;;;;;;5033782;28;1658;-85
2022/11/13 12:28:49;;;;;;;;;;;9.50;96.80;;;;;;5056431;28;1348;-88
2022/11/13 12:31:38;;;;;;;;;;;9.60;96.50;;;;;;5035462;28;1195;-88
2022/11/13 12:34:11;;;;;;;;;;;9.80;96.90;;;;;;5028159;28;1005;-90
2022/11/13 12:36:39;;;;;;;;;;;9.80;96.80;;;;;;5022249;28;1488;-90
2022/11/13 12:39:19;;;;;;;;;;;9.50;96.10;;;;;;5030512;28;1389;-90
2022/11/13 12:41:49;;;;;;;;;;;9.60;96.30;;;;;;5026413;28;1970;-90
2022/11/13 12:44:24;;;;;;;;;;;9.60;96.10;;;;;;5026003;28;1449;-89
2022/11/13 12:50:04;;;;;;;;;;;9.60;96.10;;;;;;5024196;22;1835;-76
2022/11/13 12:52:32;;;;;;;;;;;9.60;96.00;;;;;;5016349;28;1565;-76
2022/11/13 12:55:05;;;;;;;;;;;9.70;96.20;;;;;;5001520;28;1672;-76
2022/11/13 12:57:33;;;;;;;;;;;9.60;96.40;;;;;;5001907;28;1014;-76
2022/11/13 13:00:11;;;;;;;;;;;9.60;96.30;;;;;;4996868;28;1906;-76
2022/11/13 13:02:46;;;;;;;;;;;9.50;96.10;;;;;;5002423;28;1436;-77
2022/11/13 13:05:24;;;;;;;;;;;9.60;96.50;;;;;;4997559;28;1826;-75
2022/11/13 13:08:04;;;;;;;;;;;9.70;96.40;;;;;;4996183;28;1692;-72
2022/11/13 13:10:37;;;;;;;;;;;9.60;96.20;;;;;;5000903;28;1692;-72
2022/11/13 13:13:09;;;;;;;;;;;9.60;96.40;;;;;;5003640;28;1226;-72
2022/11/13 13:15:38;;;;;;;;;;;9.60;96.50;;;;;;5006792;28;1814;-71
2022/11/13 13:18:11;;;;;;;;;;;9.50;96.30;;;;;;5005209;28;1687;-71
2022/11/13 13:20:41;;;;;;;;;;;9.60;96.50;;;;;;5004351;28;1989;-72
2022/11/13 13:23:10;;;;;;;;;;;9.70;96.10;;;;;;5003137;28;1645;-71
2022/11/13 13:25:39;;;;;;;;;;;9.50;96.60;;;;;;4999782;28;981;-73
2022/11/13 13:28:18;;;;;;;;;;;9.60;96.70;;;;;;5003991;28;1098;-71
2022/11/13 13:30:51;;;;;;;;;;;9.50;96.30;;;;;;4999879;28;1117;-73
2022/11/13 13:33:21;;;;;;;;;;;9.60;96.30;;;;;;5002409;28;1490;-73
2022/11/13 13:35:54;;;;;;;;;;;9.80;96.10;;;;;;5000124;28;986;-71
2022/11/13 13:38:24;;;;;;;;;;;9.80;96.00;;;;;;5007143;28;1042;-73
2022/11/13 13:41:01;;;;;;;;;;;9.70;96.00;;;;;;5004809;28;1907;-69
2022/11/13 13:43:34;;;;;;;;;;;9.60;96.20;;;;;;5007371;28;1117;-69
2022/11/13 13:46:06;;;;;;;;;;;9.50;96.30;;;;;;4997645;28;1074;-69
2022/11/13 13:48:37;;;;;;;;;;;9.60;96.60;;;;;;5004069;28;1489;-69
2022/11/13 13:51:12;;;;;;;;;;;9.50;96.70;;;;;;5003785;28;1307;-69
2022/11/13 13:53:39;;;;;;;;;;;9.70;96.80;;;;;;5008091;28;1074;-69
2022/11/13 13:56:09;;;;;;;;;;;9.50;96.60;;;;;;5006851;28;1521;-67
2022/11/13 13:58:37;;;;;;;;;;;9.50;96.50;;;;;;5005141;28;1628;-68
2022/11/13 14:01:06;;;;;;;;;;;9.50;96.70;;;;;;5003867;28;1907;-68
2022/11/13 14:03:49;;;;;;;;;;;9.50;96.70;;;;;;5005929;28;1596;-68
2022/11/13 14:06:20;;;;;;;;;;;9.50;96.70;;;;;;5001195;28;1062;-67
2022/11/13 14:08:48;;;;;;;;;;;9.50;96.80;;;;;;5008216;28;1053;-68
2022/11/13 14:11:16;;;;;;;;;;;9.60;96.60;;;;;;5004525;28;1735;-68
2022/11/13 14:13:44;;;;;;;;;;;9.60;96.80;;;;;;5005999;28;1097;-69
2022/11/13 14:16:12;;;;;;;;;;;9.60;96.90;;;;;;5005434;28;1077;-69
2022/11/13 14:18:40;;;;;;;;;;;9.60;97.00;;;;;;4996886;28;971;-68
2022/11/13 14:21:15;;;;;;;;;;;9.50;96.90;;;;;;5003983;28;2006;-67
2022/11/13 14:23:45;;;;;;;;;;;9.60;97.00;;;;;;5003635;28;1076;-66
2022/11/13 14:26:13;;;;;;;;;;;9.50;97.10;;;;;;5007948;28;1179;-66
2022/11/13 14:28:45;;;;;;;;;;;9.40;97.40;;;;;;5003839;28;1167;-65
2022/11/13 14:31:19;;;;;;;;;;;9.50;97.50;;;;;;5007313;28;1457;-67
2022/11/13 14:33:48;;;;;;;;;;;9.50;97.50;;;;;;5005551;28;2097;-67
2022/11/13 14:36:24;;;;;;;;;;;9.50;97.60;;;;;;5007182;28;1100;-67
2022/11/13 14:38:54;;;;;;;;;;;9.60;97.40;;;;;;5005799;28;1097;-68
2022/11/13 14:41:24;;;;;;;;;;;9.60;97.40;;;;;;5005794;28;1985;-68
2022/11/13 14:43:53;;;;;;;;;;;9.60;97.70;;;;;;5007290;28;1120;-68
2022/11/13 14:46:28;;;;;;;;;;;9.70;97.40;;;;;;5010148;28;1119;-68
2022/11/13 14:48:56;;;;;;;;;;;9.70;97.40;;;;;;5014821;28;1462;-67
2022/11/13 14:51:25;;;;;;;;;;;9.70;97.30;;;;;;5006208;28;1322;-67
2022/11/13 14:53:59;;;;;;;;;;;9.60;97.60;;;;;;5008119;28;1152;-67
2022/11/13 14:56:34;;;;;;;;;;;9.50;97.50;;;;;;5008245;28;1662;-67
2022/11/13 14:59:08;;;;;;;;;;;9.60;97.60;;;;;;5006047;28;1108;-67
2022/11/13 15:01:36;;;;;;;;;;;9.70;97.70;;;;;;5004340;28;1914;-67
2022/11/13 15:04:04;;;;;;;;;;;9.50;97.90;;;;;;5005124;28;1242;-67
2022/11/13 15:06:36;;;;;;;;;;;9.60;98.00;;;;;;5002118;28;1101;-67
2022/11/13 15:09:06;;;;;;;;;;;9.50;98.10;;;;;;5005748;28;1101;-66
2022/11/13 15:11:34;;;;;;;;;;;9.40;98.40;;;;;;4997339;28;1394;-67
2022/11/13 15:14:01;;;;;;;;;;;9.70;98.10;;;;;;5006432;28;1049;-67
2022/11/13 15:16:31;;;;;;;;;;;9.60;98.10;;;;;;5006684;28;1559;-67
2022/11/13 15:19:00;;;;;;;;;;;9.50;98.10;;;;;;5002837;28;1306;-67